createdAt,value
2023-02-22T00:00:36.715Z,67.24
2023-02-22T00:03:25.164Z,67.19
2023-02-22T00:06:00.253Z,67.13
2023-02-22T00:08:32.065Z,67.13
2023-02-22T00:11:08.759Z,66.92
2023-02-22T00:13:45.351Z,66.92
2023-02-22T00:16:20.082Z,67.07
2023-02-22T00:18:51.014Z,67.29
2023-02-22T00:21:24.657Z,67.10
2023-02-22T00:23:57.868Z,67.48
2023-02-22T00:26:34.597Z,67.53
2023-02-22T00:29:09.027Z,67.37
2023-02-22T00:31:41.844Z,67.24
2023-02-22T00:34:16.507Z,67.35
2023-02-22T00:36:50.279Z,67.40
2023-02-22T00:39:22.915Z,67.54
2023-02-22T00:41:56.465Z,67.58
2023-02-22T00:44:29.243Z,67.59
2023-02-22T00:47:01.617Z,67.38
2023-02-22T00:49:35.035Z,67.51
2023-02-22T00:52:11.502Z,67.38
2023-02-22T00:54:44.685Z,67.77
2023-02-22T00:57:18.551Z,67.52
2023-02-22T00:59:51.670Z,67.78
2023-02-22T01:02:24.430Z,68.04
2023-02-22T01:04:57.396Z,68.16
2023-02-22T01:07:31.898Z,68.13
2023-02-22T01:10:05.183Z,68.16
2023-02-22T01:12:37.889Z,67.90
2023-02-22T01:15:14.868Z,67.73
2023-02-22T01:17:47.314Z,67.89
2023-02-22T01:20:20.975Z,67.75
2023-02-22T01:22:55.366Z,67.60
2023-02-22T01:25:31.021Z,67.70
2023-02-22T01:28:05.325Z,67.85
2023-02-22T01:30:38.991Z,67.85
2023-02-22T01:33:15.596Z,67.69
2023-02-22T01:35:50.182Z,67.65
2023-02-22T01:38:22.809Z,67.66
2023-02-22T01:40:55.579Z,67.82
2023-02-22T01:43:29.805Z,67.70
2023-02-22T01:46:05.180Z,67.56
2023-02-22T01:48:44.571Z,67.83
2023-02-22T01:51:21.187Z,67.94
2023-02-22T01:53:58.803Z,67.94
2023-02-22T01:56:33.562Z,67.85
2023-02-22T01:59:11.372Z,68.10
2023-02-22T02:01:46.242Z,68.08
2023-02-22T02:04:25.548Z,67.93
2023-02-22T02:07:06.117Z,67.72
2023-02-22T02:09:46.046Z,67.76
2023-02-22T02:12:21.154Z,67.58
2023-02-22T02:15:17.641Z,67.61
2023-02-22T02:17:51.339Z,67.96
2023-02-22T02:20:29.273Z,67.77
2023-02-22T02:23:15.214Z,68.01
2023-02-22T02:26:37.749Z,68.13
2023-02-22T02:29:37.210Z,68.02
2023-02-22T02:32:33.247Z,67.86
2023-02-22T02:35:12.671Z,67.70
2023-02-22T02:37:57.762Z,67.51
2023-02-22T02:40:39.480Z,66.70
2023-02-22T02:43:18.784Z,66.58
2023-02-22T02:45:57.229Z,67.38
2023-02-22T02:48:33.796Z,67.49
2023-02-22T02:51:14.466Z,67.89
2023-02-22T02:53:51.422Z,67.51
2023-02-22T02:56:24.566Z,67.27
2023-02-22T02:58:57.588Z,65.83
2023-02-22T03:01:57.708Z,65.62
2023-02-22T03:04:46.006Z,65.31
2023-02-22T03:07:46.718Z,65.68
2023-02-22T03:10:37.871Z,66.23
2023-02-22T03:13:20.770Z,66.71
2023-02-22T03:16:05.114Z,67.90
2023-02-22T03:18:52.115Z,68.11
2023-02-22T03:21:33.665Z,67.71
2023-02-22T03:24:13.852Z,66.77
2023-02-22T03:26:53.415Z,66.88
2023-02-22T03:29:30.087Z,66.43
2023-02-22T03:32:04.965Z,66.83
2023-02-22T03:34:43.961Z,66.08
2023-02-22T03:37:22.046Z,66.99
2023-02-22T03:40:00.949Z,67.37
2023-02-22T03:42:39.075Z,66.43
2023-02-22T03:45:15.708Z,64.99
2023-02-22T03:47:50.911Z,64.52
2023-02-22T03:50:27.228Z,65.02
2023-02-22T03:53:00.464Z,65.58
2023-02-22T03:55:34.726Z,66.50
2023-02-22T03:58:13.025Z,66.93
2023-02-22T04:00:46.613Z,66.65
2023-02-22T04:03:19.304Z,65.96
2023-02-22T04:05:51.965Z,65.45
2023-02-22T04:08:25.106Z,65.28
2023-02-22T04:10:57.980Z,65.18
2023-02-22T04:13:32.972Z,64.85
2023-02-22T04:16:05.596Z,64.54
2023-02-22T04:18:37.985Z,64.51
2023-02-22T04:21:11.431Z,64.54
2023-02-22T04:23:52.902Z,64.45
2023-02-22T04:26:26.766Z,64.45
2023-02-22T04:29:02.138Z,64.35
2023-02-22T04:31:42.557Z,64.28
2023-02-22T04:34:16.397Z,64.07
2023-02-22T04:36:48.874Z,64.02
2023-02-22T04:39:21.645Z,64.63
2023-02-22T04:41:54.316Z,64.74
2023-02-22T04:44:29.516Z,64.59
2023-02-22T04:47:01.984Z,65.27
2023-02-22T04:49:34.564Z,65.07
2023-02-22T04:52:07.250Z,64.61
2023-02-22T04:54:43.261Z,64.54
2023-02-22T04:57:15.789Z,64.50
2023-02-22T04:59:49.152Z,64.57
2023-02-22T05:02:21.905Z,65.05
2023-02-22T05:04:55.182Z,64.84
2023-02-22T05:07:27.799Z,64.58
2023-02-22T05:10:02.908Z,64.61
2023-02-22T05:12:36.249Z,64.70
2023-02-22T05:15:10.076Z,66.17
2023-02-22T05:17:43.778Z,67.08
2023-02-22T05:20:24.412Z,67.25
2023-02-22T05:22:57.561Z,66.66
2023-02-22T05:25:30.439Z,67.25
2023-02-22T05:28:05.121Z,65.74
2023-02-22T05:30:39.751Z,65.06
2023-02-22T05:33:14.373Z,64.63
2023-02-22T05:35:47.453Z,64.56
2023-02-22T05:38:20.042Z,64.90
2023-02-22T05:40:53.003Z,65.96
2023-02-22T05:43:25.549Z,65.81
2023-02-22T05:45:58.250Z,65.14
2023-02-22T05:48:31.191Z,64.53
2023-02-22T05:51:03.993Z,64.10
2023-02-22T05:53:36.946Z,64.23
2023-02-22T05:56:10.380Z,64.14
2023-02-22T05:58:45.782Z,64.17
2023-02-22T06:01:19.340Z,64.29
2023-02-22T06:03:52.867Z,64.42
2023-02-22T06:06:25.828Z,64.52
2023-02-22T06:08:58.532Z,64.61
2023-02-22T06:11:31.014Z,64.82
2023-02-22T06:14:03.384Z,64.64
2023-02-22T06:16:35.967Z,64.71
2023-02-22T06:19:09.285Z,64.89
2023-02-22T06:21:52.070Z,65.35
2023-02-22T06:24:25.131Z,65.68
2023-02-22T06:27:01.074Z,65.80
2023-02-22T06:29:33.962Z,65.77
2023-02-22T06:32:07.625Z,65.62
2023-02-22T06:34:43.792Z,65.61
2023-02-22T06:37:17.111Z,65.59
2023-02-22T06:39:50.006Z,65.64
2023-02-22T06:42:22.928Z,65.67
2023-02-22T06:44:56.044Z,65.53
2023-02-22T06:47:29.794Z,66.09
2023-02-22T06:50:02.918Z,65.86
2023-02-22T06:52:35.331Z,65.78
2023-02-22T06:55:08.776Z,65.73
2023-02-22T06:57:45.565Z,65.92
2023-02-22T07:00:22.085Z,66.24
2023-02-22T07:02:55.173Z,66.29
2023-02-22T07:05:29.378Z,66.59
2023-02-22T07:08:08.548Z,66.56
2023-02-22T07:10:41.793Z,66.63
2023-02-22T07:13:15.495Z,66.67
2023-02-22T07:15:47.898Z,66.66
2023-02-22T07:18:20.466Z,66.83
2023-02-22T07:20:53.326Z,66.73
2023-02-22T07:23:25.893Z,66.94
2023-02-22T07:26:01.185Z,67.08
2023-02-22T07:28:33.726Z,67.28
2023-02-22T07:31:06.318Z,68.08
2023-02-22T07:33:39.229Z,68.48
2023-02-22T07:36:13.882Z,68.62
2023-02-22T07:38:46.668Z,68.85
2023-02-22T07:41:19.361Z,69.58
2023-02-22T07:43:51.901Z,70.40
2023-02-22T07:46:24.629Z,71.07
2023-02-22T07:48:57.961Z,71.92
2023-02-22T07:51:30.404Z,71.96
2023-02-22T07:54:02.872Z,72.91
2023-02-22T07:56:35.433Z,72.57
2023-02-22T07:59:09.414Z,72.67
2023-02-22T08:01:42.039Z,72.79
2023-02-22T08:04:14.424Z,72.16
2023-02-22T08:06:46.983Z,71.47
2023-02-22T08:09:19.649Z,71.53
2023-02-22T08:11:52.156Z,71.26
2023-02-22T08:14:24.741Z,71.40
2023-02-22T08:16:57.258Z,70.87
2023-02-22T08:19:29.859Z,70.85
2023-02-22T08:22:02.589Z,70.47
2023-02-22T08:24:35.104Z,70.84
2023-02-22T08:27:08.111Z,70.85
2023-02-22T08:29:40.773Z,70.74
2023-02-22T08:32:13.762Z,70.68
2023-02-22T08:34:46.843Z,70.32
2023-02-22T08:37:20.224Z,69.68
2023-02-22T08:39:54.074Z,69.22
2023-02-22T08:42:26.594Z,69.12
2023-02-22T08:44:58.942Z,68.71
2023-02-22T08:47:31.484Z,69.02
2023-02-22T08:50:04.377Z,68.38
2023-02-22T08:52:36.951Z,68.42
2023-02-22T08:55:10.108Z,68.37
2023-02-22T08:57:42.495Z,68.14
2023-02-22T09:00:18.548Z,67.03
2023-02-22T09:02:51.185Z,66.63
2023-02-22T09:05:24.655Z,66.92
2023-02-22T09:07:57.488Z,66.65
2023-02-22T09:10:33.032Z,66.52
2023-02-22T09:13:06.464Z,66.64
2023-02-22T09:15:39.970Z,66.22
2023-02-22T09:18:15.474Z,66.07
2023-02-22T09:20:48.816Z,66.33
2023-02-22T09:23:21.753Z,66.16
2023-02-22T09:25:54.245Z,65.87
2023-02-22T09:28:28.300Z,65.71
2023-02-22T09:31:01.451Z,65.55
2023-02-22T09:33:34.577Z,65.61
2023-02-22T09:36:08.580Z,65.06
2023-02-22T09:38:41.636Z,65.13
2023-02-22T09:41:21.320Z,65.06
2023-02-22T09:44:07.843Z,64.67
2023-02-22T09:46:42.173Z,64.83
2023-02-22T09:49:22.837Z,64.78
2023-02-22T09:52:00.736Z,64.33
2023-02-22T09:54:40.044Z,64.37
2023-02-22T09:57:20.190Z,64.08
2023-02-22T10:00:07.823Z,64.15
2023-02-22T10:02:53.686Z,63.57
2023-02-22T10:05:31.357Z,62.99
2023-02-22T10:08:06.145Z,63.67
2023-02-22T10:10:46.182Z,63.17
2023-02-22T10:13:30.064Z,63.18
2023-02-22T10:16:08.719Z,62.76
2023-02-22T10:19:12.286Z,63.01
2023-02-22T10:22:15.739Z,62.83
2023-02-22T10:24:59.518Z,62.52
2023-02-22T10:27:38.672Z,62.70
2023-02-22T10:30:25.241Z,62.14
2023-02-22T10:33:05.457Z,61.78
2023-02-22T10:35:41.149Z,62.25
2023-02-22T10:38:22.133Z,62.22
2023-02-22T10:40:59.390Z,62.26
2023-02-22T10:43:33.471Z,62.15
2023-02-22T10:46:09.298Z,62.37
2023-02-22T10:48:44.058Z,62.13
2023-02-22T10:51:15.139Z,62.09
2023-02-22T10:53:58.387Z,62.13
2023-02-22T10:56:34.361Z,61.86
2023-02-22T10:59:07.913Z,61.97
2023-02-22T11:01:41.659Z,61.75
2023-02-22T11:04:16.899Z,61.88
2023-02-22T11:07:07.794Z,61.93
2023-02-22T11:09:52.209Z,61.86
2023-02-22T11:12:32.100Z,61.75
2023-02-22T11:15:29.649Z,61.82
2023-02-22T11:18:02.611Z,61.44
2023-02-22T11:20:40.538Z,61.14
2023-02-22T11:23:13.693Z,60.91
2023-02-22T11:25:46.345Z,60.47
2023-02-22T11:28:31.042Z,60.63
2023-02-22T11:31:15.511Z,60.74
2023-02-22T11:36:40.614Z,59.93
2023-02-22T11:39:27.591Z,60.11
2023-02-22T11:42:00.229Z,59.67
2023-02-22T11:44:34.488Z,59.45
2023-02-22T11:47:14.182Z,58.92
2023-02-22T11:49:47.679Z,58.12
2023-02-22T11:52:28.456Z,57.89
2023-02-22T11:55:32.613Z,56.60
2023-02-22T11:58:31.363Z,57.28
2023-02-22T12:01:17.275Z,56.25
2023-02-22T12:04:14.274Z,56.42
2023-02-22T12:06:53.354Z,56.57
2023-02-22T12:09:34.814Z,55.83
2023-02-22T12:12:18.525Z,56.57
2023-02-22T12:15:03.403Z,56.38
2023-02-22T12:17:59.479Z,56.80
2023-02-22T12:20:39.933Z,57.18
2023-02-22T12:23:22.644Z,57.37
2023-02-22T12:26:03.119Z,57.13
2023-02-22T12:28:39.023Z,57.13
2023-02-22T12:31:21.052Z,56.82
2023-02-22T12:34:02.284Z,56.70
2023-02-22T12:36:39.618Z,56.81
2023-02-22T12:39:40.974Z,56.75
2023-02-22T12:42:24.083Z,56.77
2023-02-22T12:45:01.318Z,56.94
2023-02-22T12:47:42.926Z,57.33
2023-02-22T12:50:22.479Z,57.20
2023-02-22T12:53:02.810Z,57.18
2023-02-22T12:55:45.771Z,57.27
2023-02-22T12:58:27.087Z,56.75
2023-02-22T13:01:06.698Z,56.62
2023-02-22T13:03:42.619Z,56.72
2023-02-22T13:06:36.485Z,57.10
2023-02-22T13:09:31.981Z,56.95
2023-02-22T13:12:13.034Z,56.42
2023-02-22T13:14:59.122Z,56.68
2023-02-22T13:17:38.119Z,56.50
2023-02-22T13:20:19.098Z,56.35
2023-02-22T13:22:59.205Z,56.68
2023-02-22T13:25:39.532Z,56.79
2023-02-22T13:28:25.250Z,56.28
2023-02-22T13:31:13.558Z,56.01
2023-02-22T13:34:04.708Z,55.15
2023-02-22T13:36:47.828Z,55.37
2023-02-22T13:39:42.023Z,55.95
2023-02-22T13:42:38.046Z,55.71
2023-02-22T13:45:35.085Z,55.10
2023-02-22T13:48:39.361Z,55.21
2023-02-22T13:51:22.193Z,54.97
2023-02-22T13:54:00.703Z,54.60
2023-02-22T13:56:33.609Z,54.32
2023-02-22T13:59:07.555Z,54.59
2023-02-22T14:01:49.407Z,54.64
2023-02-22T14:04:45.489Z,54.45
2023-02-22T14:07:58.177Z,54.96
2023-02-22T14:10:55.274Z,54.13
2023-02-22T14:13:29.850Z,53.89
2023-02-22T14:16:24.848Z,53.57
2023-02-22T14:19:07.585Z,52.86
2023-02-22T14:21:56.092Z,52.82
2023-02-22T14:24:29.588Z,52.83
2023-02-22T14:27:05.477Z,52.61
2023-02-22T14:29:38.486Z,52.05
2023-02-22T14:32:13.076Z,51.84
2023-02-22T14:34:54.013Z,51.75
2023-02-22T14:37:30.628Z,51.45
2023-02-22T14:40:13.298Z,51.12
2023-02-22T14:42:50.995Z,50.84
2023-02-22T14:45:30.068Z,51.15
2023-02-22T14:48:11.747Z,51.00
2023-02-22T14:50:50.545Z,50.72
2023-02-22T14:53:30.915Z,50.74
2023-02-22T14:56:07.836Z,50.52
2023-02-22T14:58:46.161Z,50.78
2023-02-22T15:01:44.369Z,50.87
2023-02-22T15:04:25.565Z,51.01
2023-02-22T15:07:01.350Z,51.20
2023-02-22T15:09:37.612Z,51.04
2023-02-22T15:12:22.544Z,51.11
2023-02-22T15:15:14.802Z,51.12
2023-02-22T15:17:48.842Z,51.41
2023-02-22T15:20:25.142Z,51.56
2023-02-22T15:23:03.307Z,51.74
2023-02-22T15:25:37.875Z,52.02
2023-02-22T15:28:15.087Z,52.00
2023-02-22T15:30:47.795Z,51.93
2023-02-22T15:33:24.445Z,51.96
2023-02-22T15:35:59.567Z,52.11
2023-02-22T15:38:31.335Z,52.39
2023-02-22T15:41:08.466Z,52.35
2023-02-22T15:43:42.275Z,52.19
2023-02-22T15:46:15.666Z,52.49
2023-02-22T15:49:07.394Z,52.51
2023-02-22T15:51:45.151Z,52.77
2023-02-22T15:54:27.137Z,52.55
2023-02-22T15:57:00.888Z,52.78
2023-02-22T15:59:35.158Z,52.81
2023-02-22T16:02:07.662Z,52.97
2023-02-22T16:04:42.199Z,53.45
2023-02-22T16:07:21.334Z,53.63
2023-02-22T16:09:54.815Z,53.99
2023-02-22T16:12:29.482Z,53.79
2023-02-22T16:15:00.555Z,54.20
2023-02-22T16:17:41.145Z,54.63
2023-02-22T16:20:37.597Z,54.79
2023-02-22T16:23:27.975Z,55.07
2023-02-22T16:26:19.285Z,55.15
2023-02-22T16:28:53.690Z,55.53
2023-02-22T16:31:32.108Z,55.64
2023-02-22T16:34:06.380Z,55.79
2023-02-22T16:36:45.365Z,55.90
2023-02-22T16:39:24.824Z,55.99
2023-02-22T16:41:59.625Z,56.18
2023-02-22T16:44:30.804Z,56.26
2023-02-22T16:47:03.690Z,56.65
2023-02-22T16:49:36.202Z,56.80
2023-02-22T16:52:10.189Z,56.93
2023-02-22T16:54:46.520Z,57.05
2023-02-22T16:57:22.878Z,57.13
2023-02-22T16:59:55.720Z,57.34
2023-02-22T17:02:28.495Z,57.49
2023-02-22T17:05:01.108Z,57.35
2023-02-22T17:07:33.595Z,57.64
2023-02-22T17:10:06.188Z,57.76
2023-02-22T17:12:41.677Z,57.69
2023-02-22T17:15:21.797Z,57.68
2023-02-22T17:17:55.861Z,57.79
2023-02-22T17:20:31.097Z,57.84
2023-02-22T17:23:05.369Z,57.79
2023-02-22T17:25:41.087Z,57.80
2023-02-22T17:28:13.997Z,58.07
2023-02-22T17:30:49.071Z,58.34
2023-02-22T17:33:26.863Z,58.23
2023-02-22T17:36:02.194Z,58.28
2023-02-22T17:38:35.404Z,58.23
2023-02-22T17:41:09.506Z,58.43
2023-02-22T17:43:42.030Z,58.51
2023-02-22T17:46:14.735Z,58.56
2023-02-22T17:48:48.506Z,58.56
2023-02-22T17:51:21.349Z,58.41
2023-02-22T17:53:54.879Z,58.22
2023-02-22T17:56:27.592Z,58.65
2023-02-22T17:59:01.043Z,58.63
2023-02-22T18:01:35.982Z,58.50
2023-02-22T18:04:09.139Z,58.37
2023-02-22T18:06:42.001Z,58.23
2023-02-22T18:09:17.923Z,58.26
2023-02-22T18:11:50.585Z,58.21
2023-02-22T18:14:23.780Z,58.26
2023-02-22T18:16:56.310Z,58.42
2023-02-22T18:19:29.337Z,58.47
2023-02-22T18:22:03.130Z,58.33
2023-02-22T18:24:36.618Z,58.39
2023-02-22T18:27:11.916Z,58.50
2023-02-22T18:29:44.786Z,58.40
2023-02-22T18:32:17.435Z,58.49
2023-02-22T18:34:50.495Z,58.68
2023-02-22T18:37:23.516Z,58.75
2023-02-22T18:39:56.041Z,58.77
2023-02-22T18:42:29.534Z,58.64
2023-02-22T18:45:05.025Z,58.77
2023-02-22T18:47:44.199Z,58.65
2023-02-22T18:50:17.367Z,58.82
2023-02-22T18:52:50.274Z,58.75
2023-02-22T18:55:24.490Z,58.87
2023-02-22T18:57:57.638Z,59.23
2023-02-22T19:00:30.508Z,59.22
2023-02-22T19:03:05.172Z,59.17
2023-02-22T19:05:39.208Z,59.10
2023-02-22T19:08:11.598Z,59.37
2023-02-22T19:10:44.916Z,59.66
2023-02-22T19:13:18.990Z,59.63
2023-02-22T19:15:51.517Z,59.81
2023-02-22T19:18:25.074Z,59.97
2023-02-22T19:21:01.684Z,60.03
2023-02-22T19:23:35.307Z,60.05
2023-02-22T19:26:09.493Z,60.09
2023-02-22T19:28:42.642Z,60.50
2023-02-22T19:31:20.531Z,60.34
2023-02-22T19:33:54.392Z,60.31
2023-02-22T19:36:27.200Z,60.78
2023-02-22T19:39:02.085Z,60.63
2023-02-22T19:41:38.316Z,60.55
2023-02-22T19:44:11.106Z,60.60
2023-02-22T19:46:44.061Z,60.67
2023-02-22T19:49:17.886Z,60.61
2023-02-22T19:51:51.069Z,60.82
2023-02-22T19:54:24.058Z,60.72
2023-02-22T19:56:58.378Z,60.86
2023-02-22T19:59:31.078Z,60.70
2023-02-22T20:02:03.623Z,61.05
2023-02-22T20:04:37.492Z,61.13
2023-02-22T20:07:10.763Z,61.04
2023-02-22T20:09:43.890Z,60.95
2023-02-22T20:12:17.250Z,61.03
2023-02-22T20:14:50.413Z,61.05
2023-02-22T20:17:23.857Z,61.45
2023-02-22T20:19:58.485Z,61.75
2023-02-22T20:22:31.916Z,61.79
2023-02-22T20:25:05.772Z,61.65
2023-02-22T20:27:38.685Z,61.56
2023-02-22T20:30:13.372Z,61.62
2023-02-22T20:32:47.865Z,61.80
2023-02-22T20:35:22.310Z,61.70
2023-02-22T20:37:58.158Z,61.68
2023-02-22T20:40:30.630Z,61.91
2023-02-22T20:43:05.307Z,61.94
2023-02-22T20:45:40.267Z,61.81
2023-02-22T20:48:12.826Z,61.60
2023-02-22T20:50:45.504Z,61.91
2023-02-22T20:53:19.640Z,62.15
2023-02-22T20:55:55.722Z,61.90
2023-02-22T20:58:31.143Z,61.78
2023-02-22T21:01:08.323Z,61.91
2023-02-22T21:03:42.586Z,61.93
2023-02-22T21:06:17.800Z,61.94
2023-02-22T21:08:54.844Z,61.59
2023-02-22T21:11:28.919Z,61.55
2023-02-22T21:14:02.345Z,61.70
2023-02-22T21:16:36.562Z,61.65
2023-02-22T21:19:10.340Z,61.40
2023-02-22T21:21:43.919Z,61.67
2023-02-22T21:24:16.705Z,61.70
2023-02-22T21:26:49.241Z,61.80
2023-02-22T21:29:22.040Z,61.91
2023-02-22T21:31:54.574Z,62.07
2023-02-22T21:34:27.316Z,61.70
2023-02-22T21:37:00.124Z,61.56
2023-02-22T21:39:32.995Z,61.58
2023-02-22T21:42:07.339Z,61.39
2023-02-22T21:44:40.975Z,61.49
2023-02-22T21:47:13.799Z,61.51
2023-02-22T21:49:46.552Z,61.77
2023-02-22T21:52:19.894Z,61.53
2023-02-22T21:54:52.569Z,61.68
2023-02-22T21:57:26.244Z,61.75
2023-02-22T21:59:58.821Z,61.44
2023-02-22T22:02:32.308Z,61.53
2023-02-22T22:05:05.959Z,61.26
2023-02-22T22:07:38.528Z,61.40
2023-02-22T22:10:18.127Z,61.28
2023-02-22T22:12:50.604Z,61.33
2023-02-22T22:15:23.667Z,61.91
2023-02-22T22:17:59.473Z,61.51
2023-02-22T22:20:32.023Z,61.19
2023-02-22T22:23:04.796Z,60.93
2023-02-22T22:25:38.479Z,60.93
2023-02-22T22:28:12.562Z,61.17
2023-02-22T22:30:45.052Z,60.96
2023-02-22T22:33:17.758Z,61.00
2023-02-22T22:35:50.153Z,61.62
2023-02-22T22:38:22.776Z,61.28
2023-02-22T22:40:55.825Z,61.15
2023-02-22T22:43:28.626Z,61.14
2023-02-22T22:46:03.992Z,61.04
2023-02-22T22:48:39.135Z,60.87
2023-02-22T22:51:14.574Z,61.01
2023-02-22T22:53:49.240Z,61.20
2023-02-22T22:56:26.622Z,61.14
2023-02-22T22:59:00.506Z,60.98
2023-02-22T23:01:39.340Z,61.29
2023-02-22T23:04:13.654Z,61.12
2023-02-22T23:06:47.577Z,60.95
2023-02-22T23:09:22.098Z,60.95
2023-02-22T23:11:57.036Z,60.73
2023-02-22T23:14:31.340Z,60.93
2023-02-22T23:17:04.513Z,60.82
2023-02-22T23:19:38.777Z,60.67
2023-02-22T23:22:14.042Z,60.51
2023-02-22T23:24:46.454Z,60.62
2023-02-22T23:27:19.112Z,60.73
2023-02-22T23:29:52.548Z,60.74
2023-02-22T23:32:26.904Z,60.83
2023-02-22T23:35:01.800Z,61.46
2023-02-22T23:37:35.581Z,61.14
2023-02-22T23:40:17.204Z,60.97
2023-02-22T23:42:54.804Z,60.87
2023-02-22T23:45:28.532Z,60.70
2023-02-22T23:48:01.779Z,60.83
2023-02-22T23:50:36.431Z,60.76
2023-02-22T23:53:15.293Z,60.75
2023-02-22T23:55:49.200Z,60.74
2023-02-22T23:58:23.190Z,60.71
